sensor_id;sensor_type;location;lat;lon;timestamp;P1;durP1;ratioP1;P2;durP2;ratioP2
12880;SDS011;6508;53.786;9.996;2023-04-07T00:01:51;13.98;;;10.13;;
12880;SDS011;6508;53.786;9.996;2023-04-07T00:05:13;12.05;;;10.65;;
12880;SDS011;6508;53.786;9.996;2023-04-07T00:08:34;12.07;;;10.98;;
12880;SDS011;6508;53.786;9.996;2023-04-07T00:11:54;11.80;;;10.60;;
12880;SDS011;6508;53.786;9.996;2023-04-07T00:15:14;11.85;;;10.65;;
12880;SDS011;6508;53.786;9.996;2023-04-07T00:18:35;14.00;;;11.57;;
12880;SDS011;6508;53.786;9.996;2023-04-07T00:21:56;11.10;;;9.63;;
12880;SDS011;6508;53.786;9.996;2023-04-07T00:25:16;12.30;;;11.07;;
12880;SDS011;6508;53.786;9.996;2023-04-07T00:28:39;12.40;;;10.98;;
12880;SDS011;6508;53.786;9.996;2023-04-07T00:31:59;11.73;;;10.63;;
12880;SDS011;6508;53.786;9.996;2023-04-07T00:35:20;11.60;;;10.48;;
12880;SDS011;6508;53.786;9.996;2023-04-07T00:38:48;11.48;;;10.27;;
12880;SDS011;6508;53.786;9.996;2023-04-07T00:42:08;11.55;;;10.35;;
12880;SDS011;6508;53.786;9.996;2023-04-07T00:45:29;12.00;;;10.75;;
12880;SDS011;6508;53.786;9.996;2023-04-07T00:48:50;10.93;;;9.93;;
12880;SDS011;6508;53.786;9.996;2023-04-07T00:52:10;11.35;;;9.93;;
12880;SDS011;6508;53.786;9.996;2023-04-07T00:55:32;11.70;;;10.18;;
12880;SDS011;6508;53.786;9.996;2023-04-07T00:58:53;11.60;;;10.43;;
12880;SDS011;6508;53.786;9.996;2023-04-07T01:02:15;12.48;;;10.43;;
12880;SDS011;6508;53.786;9.996;2023-04-07T01:05:37;11.57;;;10.57;;
12880;SDS011;6508;53.786;9.996;2023-04-07T01:09:03;11.38;;;9.88;;
12880;SDS011;6508;53.786;9.996;2023-04-07T01:12:30;10.88;;;9.88;;
12880;SDS011;6508;53.786;9.996;2023-04-07T01:16:03;10.95;;;9.95;;
12880;SDS011;6508;53.786;9.996;2023-04-07T01:19:28;10.90;;;9.80;;
12880;SDS011;6508;53.786;9.996;2023-04-07T01:22:57;10.63;;;9.65;;
12880;SDS011;6508;53.786;9.996;2023-04-07T01:26:30;10.43;;;9.45;;
12880;SDS011;6508;53.786;9.996;2023-04-07T01:29:56;10.20;;;9.20;;
12880;SDS011;6508;53.786;9.996;2023-04-07T01:33:18;10.85;;;9.75;;
12880;SDS011;6508;53.786;9.996;2023-04-07T01:36:39;9.68;;;8.90;;
12880;SDS011;6508;53.786;9.996;2023-04-07T01:40:01;9.73;;;8.73;;
12880;SDS011;6508;53.786;9.996;2023-04-07T01:43:21;9.90;;;8.95;;
12880;SDS011;6508;53.786;9.996;2023-04-07T01:46:43;9.70;;;8.70;;
12880;SDS011;6508;53.786;9.996;2023-04-07T01:50:04;11.77;;;9.30;;
12880;SDS011;6508;53.786;9.996;2023-04-07T01:53:26;9.85;;;8.90;;
12880;SDS011;6508;53.786;9.996;2023-04-07T01:56:46;9.77;;;8.55;;
12880;SDS011;6508;53.786;9.996;2023-04-07T02:00:13;9.65;;;8.75;;
12880;SDS011;6508;53.786;9.996;2023-04-07T02:03:39;9.07;;;8.23;;
12880;SDS011;6508;53.786;9.996;2023-04-07T02:07:09;9.77;;;8.88;;
12880;SDS011;6508;53.786;9.996;2023-04-07T02:10:36;10.30;;;8.93;;
12880;SDS011;6508;53.786;9.996;2023-04-07T02:14:00;8.60;;;8.00;;
12880;SDS011;6508;53.786;9.996;2023-04-07T02:17:21;8.25;;;7.55;;
12880;SDS011;6508;53.786;9.996;2023-04-07T02:20:44;8.27;;;7.67;;
12880;SDS011;6508;53.786;9.996;2023-04-07T02:24:05;8.73;;;7.93;;
12880;SDS011;6508;53.786;9.996;2023-04-07T02:27:26;8.40;;;7.65;;
12880;SDS011;6508;53.786;9.996;2023-04-07T02:30:46;10.63;;;8.27;;
12880;SDS011;6508;53.786;9.996;2023-04-07T02:34:06;8.68;;;7.93;;
12880;SDS011;6508;53.786;9.996;2023-04-07T02:37:28;8.60;;;7.90;;
12880;SDS011;6508;53.786;9.996;2023-04-07T02:40:49;8.80;;;7.75;;
12880;SDS011;6508;53.786;9.996;2023-04-07T02:44:09;7.57;;;7.07;;
12880;SDS011;6508;53.786;9.996;2023-04-07T02:47:30;10.03;;;8.43;;
12880;SDS011;6508;53.786;9.996;2023-04-07T02:50:50;8.55;;;7.75;;
12880;SDS011;6508;53.786;9.996;2023-04-07T02:54:13;8.47;;;7.87;;
12880;SDS011;6508;53.786;9.996;2023-04-07T02:57:34;8.07;;;7.47;;
12880;SDS011;6508;53.786;9.996;2023-04-07T03:00:55;8.43;;;7.77;;
12880;SDS011;6508;53.786;9.996;2023-04-07T03:04:17;8.70;;;7.90;;
12880;SDS011;6508;53.786;9.996;2023-04-07T03:07:37;8.37;;;7.67;;
12880;SDS011;6508;53.786;9.996;2023-04-07T03:11:00;7.90;;;7.20;;
12880;SDS011;6508;53.786;9.996;2023-04-07T03:14:20;8.40;;;7.60;;
12880;SDS011;6508;53.786;9.996;2023-04-07T03:17:45;7.87;;;7.27;;
12880;SDS011;6508;53.786;9.996;2023-04-07T03:21:06;8.37;;;7.47;;
12880;SDS011;6508;53.786;9.996;2023-04-07T03:24:32;7.67;;;7.03;;
12880;SDS011;6508;53.786;9.996;2023-04-07T03:27:54;7.93;;;7.23;;
12880;SDS011;6508;53.786;9.996;2023-04-07T03:31:16;7.77;;;7.17;;
12880;SDS011;6508;53.786;9.996;2023-04-07T03:34:37;8.07;;;7.37;;
12880;SDS011;6508;53.786;9.996;2023-04-07T03:37:58;8.70;;;7.90;;
12880;SDS011;6508;53.786;9.996;2023-04-07T03:41:18;7.83;;;7.03;;
12880;SDS011;6508;53.786;9.996;2023-04-07T03:44:41;7.83;;;7.13;;
12880;SDS011;6508;53.786;9.996;2023-04-07T03:48:02;8.33;;;7.53;;
12880;SDS011;6508;53.786;9.996;2023-04-07T03:51:24;10.23;;;8.27;;
12880;SDS011;6508;53.786;9.996;2023-04-07T03:54:48;16.60;;;14.30;;
12880;SDS011;6508;53.786;9.996;2023-04-07T03:58:18;13.40;;;11.50;;
12880;SDS011;6508;53.786;9.996;2023-04-07T04:01:51;13.00;;;11.80;;
12880;SDS011;6508;53.786;9.996;2023-04-07T04:05:17;8.80;;;8.10;;
12880;SDS011;6508;53.786;9.996;2023-04-07T04:08:38;8.07;;;7.47;;
12880;SDS011;6508;53.786;9.996;2023-04-07T04:11:58;8.40;;;7.60;;
12880;SDS011;6508;53.786;9.996;2023-04-07T04:15:19;9.23;;;8.33;;
12880;SDS011;6508;53.786;9.996;2023-04-07T04:18:43;8.27;;;7.47;;
12880;SDS011;6508;53.786;9.996;2023-04-07T04:22:12;8.17;;;7.40;;
12880;SDS011;6508;53.786;9.996;2023-04-07T04:25:33;8.43;;;7.63;;
12880;SDS011;6508;53.786;9.996;2023-04-07T04:28:59;8.77;;;8.07;;
12880;SDS011;6508;53.786;9.996;2023-04-07T04:32:30;9.20;;;8.40;;
12880;SDS011;6508;53.786;9.996;2023-04-07T04:35:57;7.97;;;7.20;;
12880;SDS011;6508;53.786;9.996;2023-04-07T04:39:18;8.13;;;7.43;;
12880;SDS011;6508;53.786;9.996;2023-04-07T04:42:41;8.90;;;8.23;;
12880;SDS011;6508;53.786;9.996;2023-04-07T04:46:03;8.87;;;8.13;;
12880;SDS011;6508;53.786;9.996;2023-04-07T04:49:24;9.43;;;8.53;;
12880;SDS011;6508;53.786;9.996;2023-04-07T04:52:47;8.43;;;7.73;;
12880;SDS011;6508;53.786;9.996;2023-04-07T04:56:08;8.17;;;7.43;;
12880;SDS011;6508;53.786;9.996;2023-04-07T04:59:29;8.27;;;7.57;;
12880;SDS011;6508;53.786;9.996;2023-04-07T05:02:55;8.17;;;7.50;;
12880;SDS011;6508;53.786;9.996;2023-04-07T05:06:27;8.83;;;8.00;;
12880;SDS011;6508;53.786;9.996;2023-04-07T05:09:49;9.10;;;7.47;;
12880;SDS011;6508;53.786;9.996;2023-04-07T05:13:13;7.87;;;7.17;;
12880;SDS011;6508;53.786;9.996;2023-04-07T05:16:36;8.40;;;7.53;;
12880;SDS011;6508;53.786;9.996;2023-04-07T05:19:59;7.60;;;6.83;;
12880;SDS011;6508;53.786;9.996;2023-04-07T05:23:20;9.10;;;8.10;;
12880;SDS011;6508;53.786;9.996;2023-04-07T05:26:45;8.10;;;7.37;;
12880;SDS011;6508;53.786;9.996;2023-04-07T05:30:12;7.27;;;6.67;;
12880;SDS011;6508;53.786;9.996;2023-04-07T05:33:34;7.33;;;6.60;;
12880;SDS011;6508;53.786;9.996;2023-04-07T05:36:56;7.80;;;7.20;;
12880;SDS011;6508;53.786;9.996;2023-04-07T05:40:17;6.95;;;6.25;;
12880;SDS011;6508;53.786;9.996;2023-04-07T05:43:39;8.27;;;7.27;;
12880;SDS011;6508;53.786;9.996;2023-04-07T05:46:59;7.97;;;7.00;;
12880;SDS011;6508;53.786;9.996;2023-04-07T05:50:26;6.72;;;6.13;;
12880;SDS011;6508;53.786;9.996;2023-04-07T05:53:47;7.75;;;6.82;;
12880;SDS011;6508;53.786;9.996;2023-04-07T05:57:10;7.63;;;6.60;;
12880;SDS011;6508;53.786;9.996;2023-04-07T06:00:33;7.40;;;6.80;;
12880;SDS011;6508;53.786;9.996;2023-04-07T06:03:53;6.80;;;6.20;;
12880;SDS011;6508;53.786;9.996;2023-04-07T06:07:16;7.78;;;6.50;;
12880;SDS011;6508;53.786;9.996;2023-04-07T06:10:37;6.05;;;5.55;;
12880;SDS011;6508;53.786;9.996;2023-04-07T06:13:57;7.00;;;6.30;;
12880;SDS011;6508;53.786;9.996;2023-04-07T06:17:21;7.57;;;6.78;;
12880;SDS011;6508;53.786;9.996;2023-04-07T06:20:42;7.40;;;6.53;;
12880;SDS011;6508;53.786;9.996;2023-04-07T06:24:04;6.88;;;6.38;;
12880;SDS011;6508;53.786;9.996;2023-04-07T06:27:24;7.40;;;6.80;;
12880;SDS011;6508;53.786;9.996;2023-04-07T06:30:45;7.10;;;6.40;;
12880;SDS011;6508;53.786;9.996;2023-04-07T06:34:07;8.70;;;7.80;;
12880;SDS011;6508;53.786;9.996;2023-04-07T06:37:28;7.20;;;6.63;;
12880;SDS011;6508;53.786;9.996;2023-04-07T06:40:49;6.55;;;6.00;;
12880;SDS011;6508;53.786;9.996;2023-04-07T06:44:09;6.72;;;6.18;;
12880;SDS011;6508;53.786;9.996;2023-04-07T06:47:30;7.55;;;6.95;;
12880;SDS011;6508;53.786;9.996;2023-04-07T06:50:52;7.70;;;7.00;;
12880;SDS011;6508;53.786;9.996;2023-04-07T06:54:12;7.50;;;6.90;;
12880;SDS011;6508;53.786;9.996;2023-04-07T06:57:34;7.50;;;6.88;;
12880;SDS011;6508;53.786;9.996;2023-04-07T07:00:54;6.72;;;6.20;;
12880;SDS011;6508;53.786;9.996;2023-04-07T07:04:14;7.07;;;6.47;;
12880;SDS011;6508;53.786;9.996;2023-04-07T07:07:38;7.47;;;6.90;;
12880;SDS011;6508;53.786;9.996;2023-04-07T07:10:58;7.72;;;7.03;;
12880;SDS011;6508;53.786;9.996;2023-04-07T07:14:18;7.57;;;6.97;;
12880;SDS011;6508;53.786;9.996;2023-04-07T07:17:38;7.53;;;6.85;;
12880;SDS011;6508;53.786;9.996;2023-04-07T07:20:59;7.88;;;7.28;;
12880;SDS011;6508;53.786;9.996;2023-04-07T07:24:22;7.32;;;6.68;;
12880;SDS011;6508;53.786;9.996;2023-04-07T07:27:43;7.32;;;6.82;;
12880;SDS011;6508;53.786;9.996;2023-04-07T07:31:06;8.13;;;7.43;;
12880;SDS011;6508;53.786;9.996;2023-04-07T07:34:28;8.23;;;7.53;;
12880;SDS011;6508;53.786;9.996;2023-04-07T07:37:50;7.47;;;6.70;;
12880;SDS011;6508;53.786;9.996;2023-04-07T07:41:13;7.65;;;7.05;;
12880;SDS011;6508;53.786;9.996;2023-04-07T07:44:34;7.18;;;6.53;;
12880;SDS011;6508;53.786;9.996;2023-04-07T07:47:54;7.70;;;6.93;;
12880;SDS011;6508;53.786;9.996;2023-04-07T07:51:14;7.82;;;7.22;;
12880;SDS011;6508;53.786;9.996;2023-04-07T07:54:35;7.50;;;6.80;;
12880;SDS011;6508;53.786;9.996;2023-04-07T07:57:57;12.30;;;11.07;;
12880;SDS011;6508;53.786;9.996;2023-04-07T08:01:17;7.70;;;7.10;;
12880;SDS011;6508;53.786;9.996;2023-04-07T08:04:38;7.63;;;6.93;;
12880;SDS011;6508;53.786;9.996;2023-04-07T08:07:59;7.80;;;7.07;;
12880;SDS011;6508;53.786;9.996;2023-04-07T08:11:19;8.00;;;7.30;;
12880;SDS011;6508;53.786;9.996;2023-04-07T08:14:42;7.57;;;6.95;;
12880;SDS011;6508;53.786;9.996;2023-04-07T08:18:02;8.07;;;7.38;;
12880;SDS011;6508;53.786;9.996;2023-04-07T08:21:22;8.18;;;7.47;;
12880;SDS011;6508;53.786;9.996;2023-04-07T08:24:44;8.32;;;7.53;;
12880;SDS011;6508;53.786;9.996;2023-04-07T08:28:06;8.70;;;8.10;;
12880;SDS011;6508;53.786;9.996;2023-04-07T08:31:27;7.55;;;6.93;;
12880;SDS011;6508;53.786;9.996;2023-04-07T08:34:48;8.27;;;7.57;;
12880;SDS011;6508;53.786;9.996;2023-04-07T08:38:08;7.90;;;7.30;;
12880;SDS011;6508;53.786;9.996;2023-04-07T08:41:32;8.25;;;7.60;;
12880;SDS011;6508;53.786;9.996;2023-04-07T08:44:57;8.13;;;7.53;;
12880;SDS011;6508;53.786;9.996;2023-04-07T08:48:20;8.68;;;8.07;;
12880;SDS011;6508;53.786;9.996;2023-04-07T08:51:44;8.77;;;8.13;;
12880;SDS011;6508;53.786;9.996;2023-04-07T08:55:07;8.77;;;8.07;;
12880;SDS011;6508;53.786;9.996;2023-04-07T08:58:28;8.75;;;8.15;;
12880;SDS011;6508;53.786;9.996;2023-04-07T09:01:52;8.70;;;8.10;;
12880;SDS011;6508;53.786;9.996;2023-04-07T09:05:15;9.38;;;8.68;;
12880;SDS011;6508;53.786;9.996;2023-04-07T09:08:36;9.23;;;8.63;;
12880;SDS011;6508;53.786;9.996;2023-04-07T09:11:03;9.35;;;8.65;;
12880;SDS011;6508;53.786;9.996;2023-04-07T09:13:31;8.52;;;7.93;;
12880;SDS011;6508;53.786;9.996;2023-04-07T09:16:00;8.85;;;8.32;;
12880;SDS011;6508;53.786;9.996;2023-04-07T09:19:21;9.43;;;8.77;;
12880;SDS011;6508;53.786;9.996;2023-04-07T09:22:45;9.02;;;8.27;;
12880;SDS011;6508;53.786;9.996;2023-04-07T09:26:20;8.60;;;8.02;;
12880;SDS011;6508;53.786;9.996;2023-04-07T09:29:43;9.23;;;8.52;;
12880;SDS011;6508;53.786;9.996;2023-04-07T09:33:03;8.73;;;8.02;;
12880;SDS011;6508;53.786;9.996;2023-04-07T09:36:27;10.20;;;9.35;;
12880;SDS011;6508;53.786;9.996;2023-04-07T09:39:49;10.02;;;9.27;;
12880;SDS011;6508;53.786;9.996;2023-04-07T09:43:13;8.85;;;8.20;;
12880;SDS011;6508;53.786;9.996;2023-04-07T09:46:34;10.27;;;9.13;;
12880;SDS011;6508;53.786;9.996;2023-04-07T09:49:55;8.93;;;8.32;;
12880;SDS011;6508;53.786;9.996;2023-04-07T09:53:19;9.45;;;8.75;;
12880;SDS011;6508;53.786;9.996;2023-04-07T09:56:39;8.18;;;7.68;;
12880;SDS011;6508;53.786;9.996;2023-04-07T10:00:00;9.82;;;9.15;;
12880;SDS011;6508;53.786;9.996;2023-04-07T10:03:21;9.00;;;8.40;;
12880;SDS011;6508;53.786;9.996;2023-04-07T10:06:43;9.13;;;8.63;;
12880;SDS011;6508;53.786;9.996;2023-04-07T10:10:07;8.68;;;7.97;;
12880;SDS011;6508;53.786;9.996;2023-04-07T10:13:28;9.32;;;8.43;;
12880;SDS011;6508;53.786;9.996;2023-04-07T10:16:51;8.85;;;8.25;;
12880;SDS011;6508;53.786;9.996;2023-04-07T10:20:13;9.23;;;8.63;;
12880;SDS011;6508;53.786;9.996;2023-04-07T10:23:38;11.70;;;8.80;;
12880;SDS011;6508;53.786;9.996;2023-04-07T10:27:08;8.05;;;7.45;;
12880;SDS011;6508;53.786;9.996;2023-04-07T10:30:30;8.90;;;8.30;;
12880;SDS011;6508;53.786;9.996;2023-04-07T10:33:52;8.68;;;8.00;;
12880;SDS011;6508;53.786;9.996;2023-04-07T10:37:24;9.38;;;8.73;;
12880;SDS011;6508;53.786;9.996;2023-04-07T10:40:44;8.45;;;7.80;;
12880;SDS011;6508;53.786;9.996;2023-04-07T10:44:07;9.40;;;8.70;;
12880;SDS011;6508;53.786;9.996;2023-04-07T10:47:28;9.15;;;8.45;;
12880;SDS011;6508;53.786;9.996;2023-04-07T10:58:25;7.40;;;6.90;;
12880;SDS011;6508;53.786;9.996;2023-04-07T11:01:58;7.47;;;6.93;;
12880;SDS011;6508;53.786;9.996;2023-04-07T11:05:40;7.22;;;6.63;;
12880;SDS011;6508;53.786;9.996;2023-04-07T11:09:01;7.10;;;6.70;;
12880;SDS011;6508;53.786;9.996;2023-04-07T11:12:35;6.72;;;6.22;;
12880;SDS011;6508;53.786;9.996;2023-04-07T11:15:56;7.32;;;6.82;;
12880;SDS011;6508;53.786;9.996;2023-04-07T11:19:17;6.70;;;6.30;;
12880;SDS011;6508;53.786;9.996;2023-04-07T11:22:37;7.07;;;6.57;;
12880;SDS011;6508;53.786;9.996;2023-04-07T11:26:04;7.03;;;6.63;;
12880;SDS011;6508;53.786;9.996;2023-04-07T11:29:26;6.40;;;6.00;;
12880;SDS011;6508;53.786;9.996;2023-04-07T11:32:47;6.68;;;6.28;;
12880;SDS011;6508;53.786;9.996;2023-04-07T11:36:10;5.80;;;5.40;;
12880;SDS011;6508;53.786;9.996;2023-04-07T11:39:50;6.40;;;6.00;;
12880;SDS011;6508;53.786;9.996;2023-04-07T11:43:17;6.53;;;6.10;;
12880;SDS011;6508;53.786;9.996;2023-04-07T11:46:51;5.82;;;5.53;;
12880;SDS011;6508;53.786;9.996;2023-04-07T11:50:11;5.40;;;5.10;;
12880;SDS011;6508;53.786;9.996;2023-04-07T11:53:34;5.95;;;5.65;;
12880;SDS011;6508;53.786;9.996;2023-04-07T11:56:58;6.07;;;5.70;;
12880;SDS011;6508;53.786;9.996;2023-04-07T12:00:18;5.45;;;5.05;;
12880;SDS011;6508;53.786;9.996;2023-04-07T12:03:53;4.43;;;4.22;;
12880;SDS011;6508;53.786;9.996;2023-04-07T12:07:22;4.60;;;4.40;;
12880;SDS011;6508;53.786;9.996;2023-04-07T12:10:45;4.80;;;4.50;;
12880;SDS011;6508;53.786;9.996;2023-04-07T12:14:15;4.70;;;4.38;;
12880;SDS011;6508;53.786;9.996;2023-04-07T12:17:35;4.25;;;4.13;;
12880;SDS011;6508;53.786;9.996;2023-04-07T12:20:56;4.45;;;4.35;;
12880;SDS011;6508;53.786;9.996;2023-04-07T12:24:17;4.75;;;4.55;;
12880;SDS011;6508;53.786;9.996;2023-04-07T12:27:38;4.72;;;4.53;;
12880;SDS011;6508;53.786;9.996;2023-04-07T12:30:59;7.97;;;7.45;;
12880;SDS011;6508;53.786;9.996;2023-04-07T12:34:19;4.97;;;4.78;;
12880;SDS011;6508;53.786;9.996;2023-04-07T12:37:40;4.60;;;4.40;;
12880;SDS011;6508;53.786;9.996;2023-04-07T12:41:00;4.78;;;4.38;;
12880;SDS011;6508;53.786;9.996;2023-04-07T12:44:22;4.88;;;4.60;;
12880;SDS011;6508;53.786;9.996;2023-04-07T12:47:43;4.80;;;4.53;;
12880;SDS011;6508;53.786;9.996;2023-04-07T12:51:03;4.90;;;4.70;;
12880;SDS011;6508;53.786;9.996;2023-04-07T12:54:24;4.65;;;4.45;;
12880;SDS011;6508;53.786;9.996;2023-04-07T12:57:44;5.00;;;4.80;;
12880;SDS011;6508;53.786;9.996;2023-04-07T13:01:06;4.93;;;4.68;;
12880;SDS011;6508;53.786;9.996;2023-04-07T13:04:27;4.90;;;4.70;;
12880;SDS011;6508;53.786;9.996;2023-04-07T13:07:48;5.97;;;5.07;;
12880;SDS011;6508;53.786;9.996;2023-04-07T13:11:08;4.60;;;4.40;;
12880;SDS011;6508;53.786;9.996;2023-04-07T13:14:29;4.70;;;4.50;;
12880;SDS011;6508;53.786;9.996;2023-04-07T13:17:51;5.18;;;4.88;;
12880;SDS011;6508;53.786;9.996;2023-04-07T13:21:11;4.88;;;4.60;;
12880;SDS011;6508;53.786;9.996;2023-04-07T13:24:32;4.47;;;4.28;;
12880;SDS011;6508;53.786;9.996;2023-04-07T13:27:52;4.93;;;4.72;;
12880;SDS011;6508;53.786;9.996;2023-04-07T13:31:13;5.20;;;5.00;;
12880;SDS011;6508;53.786;9.996;2023-04-07T13:34:35;4.80;;;4.70;;
12880;SDS011;6508;53.786;9.996;2023-04-07T13:37:59;4.80;;;4.57;;
12880;SDS011;6508;53.786;9.996;2023-04-07T13:41:19;5.53;;;5.25;;
12880;SDS011;6508;53.786;9.996;2023-04-07T13:44:42;4.90;;;4.70;;
12880;SDS011;6508;53.786;9.996;2023-04-07T13:48:02;5.20;;;4.90;;
12880;SDS011;6508;53.786;9.996;2023-04-07T13:51:24;4.90;;;4.60;;
12880;SDS011;6508;53.786;9.996;2023-04-07T13:54:44;4.85;;;4.65;;
12880;SDS011;6508;53.786;9.996;2023-04-07T13:58:04;4.65;;;4.35;;
12880;SDS011;6508;53.786;9.996;2023-04-07T14:01:25;4.95;;;4.60;;
12880;SDS011;6508;53.786;9.996;2023-04-07T14:04:45;4.60;;;4.40;;
12880;SDS011;6508;53.786;9.996;2023-04-07T14:07:27;4.97;;;4.68;;
12880;SDS011;6508;53.786;9.996;2023-04-07T14:10:48;4.85;;;4.47;;
12880;SDS011;6508;53.786;9.996;2023-04-07T14:14:09;4.35;;;4.15;;
12880;SDS011;6508;53.786;9.996;2023-04-07T14:17:29;5.22;;;4.82;;
12880;SDS011;6508;53.786;9.996;2023-04-07T14:20:50;5.32;;;5.03;;
12880;SDS011;6508;53.786;9.996;2023-04-07T14:24:11;5.20;;;4.90;;
12880;SDS011;6508;53.786;9.996;2023-04-07T14:27:32;5.53;;;5.22;;
12880;SDS011;6508;53.786;9.996;2023-04-07T14:30:53;5.75;;;5.38;;
12880;SDS011;6508;53.786;9.996;2023-04-07T14:34:14;5.20;;;4.93;;
12880;SDS011;6508;53.786;9.996;2023-04-07T14:37:35;5.25;;;4.95;;
12880;SDS011;6508;53.786;9.996;2023-04-07T14:40:58;4.80;;;4.50;;
12880;SDS011;6508;53.786;9.996;2023-04-07T14:44:19;5.10;;;4.70;;
12880;SDS011;6508;53.786;9.996;2023-04-07T14:47:39;4.97;;;4.60;;
12880;SDS011;6508;53.786;9.996;2023-04-07T14:50:59;5.45;;;5.00;;
12880;SDS011;6508;53.786;9.996;2023-04-07T14:54:20;5.38;;;4.97;;
12880;SDS011;6508;53.786;9.996;2023-04-07T14:57:41;5.75;;;5.22;;
12880;SDS011;6508;53.786;9.996;2023-04-07T15:01:04;6.13;;;5.55;;
12880;SDS011;6508;53.786;9.996;2023-04-07T15:04:24;5.82;;;5.22;;
12880;SDS011;6508;53.786;9.996;2023-04-07T15:07:46;5.20;;;4.88;;
12880;SDS011;6508;53.786;9.996;2023-04-07T15:11:06;5.53;;;5.13;;
12880;SDS011;6508;53.786;9.996;2023-04-07T15:14:28;4.72;;;4.43;;
12880;SDS011;6508;53.786;9.996;2023-04-07T15:17:50;5.60;;;5.20;;
12880;SDS011;6508;53.786;9.996;2023-04-07T15:21:12;5.50;;;5.10;;
12880;SDS011;6508;53.786;9.996;2023-04-07T15:24:33;5.43;;;5.05;;
12880;SDS011;6508;53.786;9.996;2023-04-07T15:27:54;5.90;;;5.50;;
12880;SDS011;6508;53.786;9.996;2023-04-07T15:31:15;5.53;;;5.18;;
12880;SDS011;6508;53.786;9.996;2023-04-07T15:34:36;5.38;;;5.07;;
12880;SDS011;6508;53.786;9.996;2023-04-07T15:37:56;4.93;;;4.38;;
12880;SDS011;6508;53.786;9.996;2023-04-07T15:41:16;5.15;;;4.60;;
12880;SDS011;6508;53.786;9.996;2023-04-07T15:44:37;4.70;;;4.32;;
12880;SDS011;6508;53.786;9.996;2023-04-07T15:47:59;4.65;;;4.35;;
12880;SDS011;6508;53.786;9.996;2023-04-07T15:51:19;5.03;;;4.47;;
12880;SDS011;6508;53.786;9.996;2023-04-07T15:54:40;4.80;;;4.47;;
12880;SDS011;6508;53.786;9.996;2023-04-07T15:58:00;5.32;;;4.82;;
12880;SDS011;6508;53.786;9.996;2023-04-07T16:01:21;5.00;;;4.60;;
12880;SDS011;6508;53.786;9.996;2023-04-07T16:04:43;4.68;;;4.25;;
12880;SDS011;6508;53.786;9.996;2023-04-07T16:08:03;4.78;;;4.47;;
12880;SDS011;6508;53.786;9.996;2023-04-07T16:11:24;4.38;;;4.00;;
12880;SDS011;6508;53.786;9.996;2023-04-07T16:14:44;4.60;;;4.22;;
12880;SDS011;6508;53.786;9.996;2023-04-07T16:18:07;6.10;;;5.38;;
12880;SDS011;6508;53.786;9.996;2023-04-07T16:21:29;4.90;;;4.45;;
12880;SDS011;6508;53.786;9.996;2023-04-07T16:24:50;6.25;;;5.75;;
12880;SDS011;6508;53.786;9.996;2023-04-07T16:28:10;5.53;;;5.10;;
12880;SDS011;6508;53.786;9.996;2023-04-07T16:31:31;5.60;;;5.20;;
12880;SDS011;6508;53.786;9.996;2023-04-07T16:34:51;6.15;;;5.63;;
12880;SDS011;6508;53.786;9.996;2023-04-07T16:38:13;5.53;;;5.03;;
12880;SDS011;6508;53.786;9.996;2023-04-07T16:41:33;6.22;;;5.82;;
12880;SDS011;6508;53.786;9.996;2023-04-07T16:44:54;6.05;;;5.55;;
12880;SDS011;6508;53.786;9.996;2023-04-07T16:48:16;5.75;;;5.25;;
12880;SDS011;6508;53.786;9.996;2023-04-07T16:51:36;6.25;;;5.68;;
12880;SDS011;6508;53.786;9.996;2023-04-07T16:54:58;6.15;;;5.55;;
12880;SDS011;6508;53.786;9.996;2023-04-07T16:58:19;5.75;;;5.18;;
12880;SDS011;6508;53.786;9.996;2023-04-07T17:01:41;5.30;;;4.80;;
12880;SDS011;6508;53.786;9.996;2023-04-07T17:05:02;6.45;;;5.95;;
12880;SDS011;6508;53.786;9.996;2023-04-07T17:08:23;8.38;;;7.57;;
12880;SDS011;6508;53.786;9.996;2023-04-07T17:11:45;7.28;;;5.53;;
12880;SDS011;6508;53.786;9.996;2023-04-07T17:15:06;9.48;;;7.88;;
12880;SDS011;6508;53.786;9.996;2023-04-07T17:18:27;10.07;;;8.65;;
12880;SDS011;6508;53.786;9.996;2023-04-07T17:21:47;7.60;;;6.90;;
12880;SDS011;6508;53.786;9.996;2023-04-07T17:25:08;11.25;;;8.07;;
12880;SDS011;6508;53.786;9.996;2023-04-07T17:28:30;17.30;;;9.88;;
12880;SDS011;6508;53.786;9.996;2023-04-07T17:31:54;6.57;;;5.50;;
12880;SDS011;6508;53.786;9.996;2023-04-07T17:35:15;6.78;;;6.10;;
12880;SDS011;6508;53.786;9.996;2023-04-07T17:38:35;7.95;;;7.03;;
12880;SDS011;6508;53.786;9.996;2023-04-07T17:41:56;9.60;;;7.90;;
12880;SDS011;6508;53.786;9.996;2023-04-07T17:45:18;10.57;;;8.98;;
12880;SDS011;6508;53.786;9.996;2023-04-07T17:48:39;9.23;;;7.85;;
12880;SDS011;6508;53.786;9.996;2023-04-07T17:51:59;9.40;;;7.75;;
12880;SDS011;6508;53.786;9.996;2023-04-07T17:55:19;10.57;;;8.05;;
12880;SDS011;6508;53.786;9.996;2023-04-07T17:58:40;10.05;;;8.40;;
12880;SDS011;6508;53.786;9.996;2023-04-07T18:02:01;11.05;;;9.00;;
12880;SDS011;6508;53.786;9.996;2023-04-07T18:05:22;11.65;;;8.15;;
12880;SDS011;6508;53.786;9.996;2023-04-07T18:08:43;13.77;;;8.70;;
12880;SDS011;6508;53.786;9.996;2023-04-07T18:12:04;13.02;;;9.15;;
12880;SDS011;6508;53.786;9.996;2023-04-07T18:15:25;12.10;;;9.15;;
12880;SDS011;6508;53.786;9.996;2023-04-07T18:18:49;13.10;;;8.73;;
12880;SDS011;6508;53.786;9.996;2023-04-07T18:22:09;10.98;;;8.82;;
12880;SDS011;6508;53.786;9.996;2023-04-07T18:25:30;14.68;;;9.68;;
12880;SDS011;6508;53.786;9.996;2023-04-07T18:28:50;11.73;;;8.75;;
12880;SDS011;6508;53.786;9.996;2023-04-07T18:32:11;12.52;;;9.18;;
12880;SDS011;6508;53.786;9.996;2023-04-07T18:35:33;14.95;;;9.57;;
12880;SDS011;6508;53.786;9.996;2023-04-07T18:38:53;14.38;;;9.07;;
12880;SDS011;6508;53.786;9.996;2023-04-07T18:42:13;13.60;;;8.52;;
12880;SDS011;6508;53.786;9.996;2023-04-07T18:45:33;10.38;;;7.90;;
12880;SDS011;6508;53.786;9.996;2023-04-07T18:48:54;10.10;;;8.48;;
12880;SDS011;6508;53.786;9.996;2023-04-07T18:52:16;10.63;;;8.45;;
12880;SDS011;6508;53.786;9.996;2023-04-07T18:55:37;9.90;;;7.45;;
12880;SDS011;6508;53.786;9.996;2023-04-07T18:58:57;9.60;;;7.55;;
12880;SDS011;6508;53.786;9.996;2023-04-07T19:02:18;8.18;;;6.53;;
12880;SDS011;6508;53.786;9.996;2023-04-07T19:05:38;8.40;;;7.20;;
12880;SDS011;6508;53.786;9.996;2023-04-07T19:09:00;8.25;;;7.25;;
12880;SDS011;6508;53.786;9.996;2023-04-07T19:12:20;7.88;;;6.90;;
12880;SDS011;6508;53.786;9.996;2023-04-07T19:15:43;6.65;;;6.05;;
12880;SDS011;6508;53.786;9.996;2023-04-07T19:19:03;7.60;;;6.15;;
12880;SDS011;6508;53.786;9.996;2023-04-07T19:22:24;7.28;;;5.78;;
12880;SDS011;6508;53.786;9.996;2023-04-07T19:25:46;6.63;;;5.78;;
12880;SDS011;6508;53.786;9.996;2023-04-07T19:29:06;6.07;;;5.47;;
12880;SDS011;6508;53.786;9.996;2023-04-07T19:32:27;5.55;;;5.05;;
12880;SDS011;6508;53.786;9.996;2023-04-07T19:35:48;6.05;;;5.55;;
12880;SDS011;6508;53.786;9.996;2023-04-07T19:39:08;6.80;;;6.20;;
12880;SDS011;6508;53.786;9.996;2023-04-07T19:42:32;7.00;;;5.80;;
12880;SDS011;6508;53.786;9.996;2023-04-07T19:45:52;5.97;;;5.38;;
12880;SDS011;6508;53.786;9.996;2023-04-07T19:49:13;5.97;;;5.45;;
12880;SDS011;6508;53.786;9.996;2023-04-07T19:52:35;5.72;;;5.13;;
12880;SDS011;6508;53.786;9.996;2023-04-07T19:55:55;5.32;;;4.93;;
12880;SDS011;6508;53.786;9.996;2023-04-07T19:59:16;6.35;;;5.43;;
12880;SDS011;6508;53.786;9.996;2023-04-07T20:02:46;5.68;;;5.18;;
12880;SDS011;6508;53.786;9.996;2023-04-07T20:06:08;6.30;;;5.15;;
12880;SDS011;6508;53.786;9.996;2023-04-07T20:09:28;6.00;;;5.45;;
12880;SDS011;6508;53.786;9.996;2023-04-07T20:12:49;7.30;;;6.05;;
12880;SDS011;6508;53.786;9.996;2023-04-07T20:16:11;6.25;;;5.75;;
12880;SDS011;6508;53.786;9.996;2023-04-07T20:19:31;8.77;;;6.03;;
12880;SDS011;6508;53.786;9.996;2023-04-07T20:22:52;6.63;;;5.85;;
12880;SDS011;6508;53.786;9.996;2023-04-07T20:26:13;7.35;;;6.28;;
12880;SDS011;6508;53.786;9.996;2023-04-07T20:29:33;8.27;;;6.82;;
12880;SDS011;6508;53.786;9.996;2023-04-07T20:32:55;7.90;;;7.10;;
12880;SDS011;6508;53.786;9.996;2023-04-07T20:36:15;9.25;;;7.25;;